Goldthwaite, Texas
Current Conditions -  °F | °C
As of 3:15 PM on Friday 24 Oct 2014 (Local Time) from KMNZ Reporting Station
Scattered Clouds Scattered Clouds  
Wind Chill: 85°   Ceiling: Unl
Heat Index: 85°   Visibility: 10mi
Dew Point: 56°   Wind: 6mph
Humidity: 37%   Direction: 200°SSW
Pressure: 30.11"   Gusts: NA
Location:  31.45°N, 98.57°W
Report Text: KMNZ 242015Z AUTO 20005KT 10SM SCT050 30/13 A3011 RMK AO2 T02950134
Loading
Personal Weather Stations






























Interactive Weather Map
Tropical Storm Tracking
New forecast layout! Learn more

10-Day Weather Forecast

Advertisements
Track Severe Weather on mobile